createdAt,value
2023-04-22T00:00:51.622Z,6011.00
2023-04-22T00:01:51.837Z,5780.00
2023-04-22T00:02:52.173Z,5863.00
2023-04-22T00:03:52.439Z,5422.00
2023-04-22T00:04:52.754Z,5148.00
2023-04-22T00:05:52.865Z,5404.00
2023-04-22T00:06:52.896Z,5727.00
2023-04-22T00:07:53.065Z,6017.00
2023-04-22T00:08:53.359Z,6344.00
2023-04-22T00:09:53.544Z,6042.00
2023-04-22T00:10:53.746Z,5522.00
2023-04-22T00:11:53.938Z,5688.00
2023-04-22T00:12:54.145Z,5951.00
2023-04-22T00:13:54.388Z,6055.00
2023-04-22T00:14:54.588Z,5778.00
2023-04-22T00:15:54.838Z,5695.00
2023-04-22T00:16:55.014Z,5648.00
2023-04-22T00:17:55.270Z,5226.00
2023-04-22T00:18:55.388Z,5057.00
2023-04-22T00:19:55.563Z,4890.00
2023-04-22T00:20:55.735Z,4801.00
2023-04-22T00:21:55.973Z,4957.00
2023-04-22T00:22:56.182Z,5159.00
2023-04-22T00:23:56.299Z,4972.00
2023-04-22T00:24:56.541Z,5057.00
2023-04-22T00:25:56.757Z,5252.00
2023-04-22T00:26:56.956Z,5449.00
2023-04-22T00:27:57.056Z,5509.00
2023-04-22T00:28:57.312Z,5321.00
2023-04-22T00:29:57.527Z,5188.00
2023-04-22T00:30:57.741Z,5063.00
2023-04-22T00:31:58.022Z,5532.00
2023-04-22T00:32:58.163Z,5742.00
2023-04-22T00:33:58.325Z,5770.00
2023-04-22T00:34:58.526Z,5670.00
2023-04-22T00:35:58.741Z,5872.00
2023-04-22T00:36:58.957Z,6146.00
2023-04-22T00:37:59.177Z,6221.00
2023-04-22T00:38:59.369Z,6186.00
2023-04-22T00:39:59.578Z,6319.00
2023-04-22T00:40:59.792Z,6464.00
2023-04-22T00:41:59.970Z,6595.00
2023-04-22T00:43:00.271Z,6834.00
2023-04-22T00:44:00.506Z,6911.00
2023-04-22T00:45:00.698Z,6922.00
2023-04-22T00:46:00.924Z,6958.00
2023-04-22T00:47:01.093Z,7033.00
2023-04-22T00:48:01.277Z,6953.00
2023-04-22T00:49:01.474Z,6955.00
2023-04-22T00:50:01.731Z,6964.00
2023-04-22T00:51:01.916Z,7108.00
2023-04-22T00:52:02.142Z,7009.00
2023-04-22T00:53:02.360Z,6957.00
2023-04-22T00:54:02.571Z,6972.00
2023-04-22T00:55:02.801Z,6702.00
2023-04-22T00:56:02.948Z,6590.00
2023-04-22T00:57:03.218Z,6556.00
2023-04-22T00:58:03.382Z,6566.00
2023-04-22T00:59:03.640Z,6729.00
2023-04-22T01:00:03.888Z,6878.00
2023-04-22T01:01:04.128Z,7066.00
2023-04-22T01:02:04.452Z,7188.00
2023-04-22T01:03:04.616Z,7286.00
2023-04-22T01:04:04.837Z,7262.00
2023-04-22T01:05:04.958Z,7204.00
2023-04-22T01:06:05.160Z,7080.00
2023-04-22T01:07:05.370Z,7039.00
2023-04-22T01:08:05.579Z,7098.00
2023-04-22T01:09:05.797Z,7131.00
2023-04-22T01:10:06.017Z,7124.00
2023-04-22T01:11:06.249Z,7337.00
2023-04-22T01:12:06.492Z,7441.00
2023-04-22T01:13:06.749Z,7433.00
2023-04-22T01:14:06.979Z,7479.00
2023-04-22T01:15:07.217Z,7560.00
2023-04-22T01:16:07.453Z,7860.00
2023-04-22T01:17:07.700Z,7888.00
2023-04-22T01:18:07.918Z,7629.00
2023-04-22T01:19:08.148Z,7473.00
2023-04-22T01:20:08.357Z,7538.00
2023-04-22T01:21:08.550Z,7443.00
2023-04-22T01:22:08.769Z,7049.00
2023-04-22T01:23:08.959Z,6151.00
2023-04-22T01:24:09.182Z,5779.00
2023-04-22T01:25:09.392Z,6145.00
2023-04-22T01:26:09.641Z,6168.00
2023-04-22T01:27:09.856Z,6265.00
2023-04-22T01:28:10.066Z,6317.00
2023-04-22T01:29:10.292Z,6292.00
2023-04-22T01:30:10.499Z,6464.00
2023-04-22T01:31:10.654Z,6620.00
2023-04-22T01:32:10.652Z,6881.00
2023-04-22T01:33:10.676Z,7207.00
2023-04-22T01:34:10.581Z,7401.00
2023-04-22T01:35:10.561Z,7326.00
2023-04-22T01:36:12.826Z,7117.00
2023-04-22T01:37:10.661Z,6946.00
2023-04-22T01:38:10.700Z,7120.00
2023-04-22T01:39:10.709Z,7151.00
2023-04-22T01:40:10.736Z,7135.00
2023-04-22T01:41:10.777Z,7225.00
2023-04-22T01:42:10.791Z,7220.00
2023-04-22T01:43:10.815Z,7299.00
2023-04-22T01:44:10.842Z,7453.00
2023-04-22T01:45:10.861Z,7613.00
2023-04-22T01:46:10.965Z,7669.00
2023-04-22T01:47:11.066Z,7765.00
2023-04-22T01:48:11.369Z,7743.00
2023-04-22T01:49:11.532Z,7764.00
2023-04-22T01:50:11.721Z,7720.00
2023-04-22T01:51:11.961Z,7685.00
2023-04-22T01:52:12.193Z,6653.00
2023-04-22T01:53:12.425Z,6209.00
2023-04-22T01:54:12.635Z,6273.00
2023-04-22T01:55:12.857Z,6443.00
2023-04-22T01:56:13.078Z,6751.00
2023-04-22T01:57:13.290Z,6029.00
2023-04-22T01:58:13.489Z,5446.00
2023-04-22T01:59:13.685Z,5034.00
2023-04-22T02:00:13.899Z,4998.00
2023-04-22T02:01:14.112Z,4656.00
2023-04-22T02:02:14.389Z,4467.00
2023-04-22T02:03:14.591Z,4334.00
2023-04-22T02:04:14.695Z,4295.00
2023-04-22T02:05:15.044Z,4570.00
2023-04-22T02:06:15.167Z,4943.00
2023-04-22T02:07:15.347Z,5146.00
2023-04-22T02:08:15.518Z,4598.00
2023-04-22T02:09:15.764Z,4332.00
2023-04-22T02:10:16.020Z,4681.00
2023-04-22T02:11:16.239Z,5289.00
2023-04-22T02:12:16.428Z,5759.00
2023-04-22T02:13:16.642Z,6077.00
2023-04-22T02:14:16.894Z,6296.00
2023-04-22T02:15:17.204Z,6362.00
2023-04-22T02:16:17.478Z,6346.00
2023-04-22T02:17:17.685Z,6100.00
2023-04-22T02:18:17.902Z,6353.00
2023-04-22T02:19:18.124Z,6585.00
2023-04-22T02:20:18.425Z,6623.00
2023-04-22T02:21:18.545Z,6679.00
2023-04-22T02:22:18.833Z,6806.00
2023-04-22T02:23:19.050Z,6905.00
2023-04-22T02:24:19.278Z,7020.00
2023-04-22T02:25:19.490Z,7011.00
2023-04-22T02:26:19.652Z,6825.00
2023-04-22T02:27:19.981Z,6816.00
2023-04-22T02:28:20.105Z,6624.00
2023-04-22T02:29:20.337Z,6117.00
2023-04-22T02:30:20.598Z,6043.00
2023-04-22T02:31:20.882Z,5927.00
2023-04-22T02:32:21.074Z,5323.00
2023-04-22T02:33:21.293Z,5020.00
2023-04-22T02:34:21.471Z,4747.00
2023-04-22T02:35:21.710Z,4579.00
2023-04-22T02:36:21.958Z,4532.00
2023-04-22T02:37:22.273Z,4320.00
2023-04-22T02:38:22.502Z,4177.00
2023-04-22T02:39:22.871Z,4072.00
2023-04-22T02:40:22.963Z,4514.00
2023-04-22T02:41:23.208Z,4924.00
2023-04-22T02:42:23.522Z,5159.00
2023-04-22T02:43:23.714Z,4669.00
2023-04-22T02:44:23.869Z,4332.00
2023-04-22T02:45:24.141Z,4029.00
2023-04-22T02:46:24.449Z,4068.00
2023-04-22T02:47:24.606Z,4054.00
2023-04-22T02:48:24.843Z,3912.00
2023-04-22T02:49:25.021Z,3850.00
2023-04-22T02:50:25.288Z,3750.00
2023-04-22T02:51:25.442Z,3752.00
2023-04-22T02:52:25.690Z,3627.00
2023-04-22T02:53:25.922Z,3584.00
2023-04-22T02:54:26.057Z,3611.00
2023-04-22T02:55:26.305Z,3706.00
2023-04-22T02:56:26.581Z,3790.00
2023-04-22T02:57:26.730Z,3757.00
2023-04-22T02:58:27.035Z,3767.00
2023-04-22T02:59:27.263Z,3844.00
2023-04-22T03:00:27.412Z,3825.00
2023-04-22T03:01:27.762Z,3662.00
2023-04-22T03:02:28.039Z,3623.00
2023-04-22T03:03:28.286Z,3770.00
2023-04-22T03:04:28.377Z,3946.00
2023-04-22T03:05:28.563Z,3983.00
2023-04-22T03:06:28.807Z,3936.00
2023-04-22T03:07:29.080Z,3934.00
2023-04-22T03:08:29.265Z,3961.00
2023-04-22T03:09:29.542Z,4082.00
2023-04-22T03:10:29.800Z,4187.00
2023-04-22T03:11:29.981Z,3964.00
2023-04-22T03:12:30.254Z,3923.00
2023-04-22T03:13:30.408Z,3920.00
2023-04-22T03:14:30.654Z,3737.00
2023-04-22T03:15:30.906Z,3603.00
2023-04-22T03:16:31.097Z,3535.00
2023-04-22T03:17:31.340Z,3548.00
2023-04-22T03:18:31.467Z,3463.00
2023-04-22T03:19:31.654Z,3528.00
2023-04-22T03:20:31.904Z,3749.00
2023-04-22T03:21:32.068Z,3938.00
2023-04-22T03:22:32.334Z,4166.00
2023-04-22T03:23:32.476Z,4449.00
2023-04-22T03:24:32.732Z,4415.00
2023-04-22T03:25:32.924Z,4093.00
2023-04-22T03:26:33.117Z,3838.00
2023-04-22T03:27:33.316Z,3746.00
2023-04-22T03:28:33.519Z,3535.00
2023-04-22T03:29:33.713Z,3360.00
2023-04-22T03:30:33.981Z,3287.00
2023-04-22T03:31:34.256Z,3510.00
2023-04-22T03:32:34.439Z,4106.00
2023-04-22T03:33:34.679Z,4515.00
2023-04-22T03:34:37.072Z,4612.00
2023-04-22T03:35:35.022Z,4398.00
2023-04-22T03:36:35.069Z,4232.00
2023-04-22T03:37:35.137Z,4112.00
2023-04-22T03:38:35.200Z,4017.00
2023-04-22T03:39:35.250Z,3867.00
2023-04-22T03:40:35.312Z,3748.00
2023-04-22T03:41:35.371Z,4287.00
2023-04-22T03:42:35.474Z,4648.00
2023-04-22T03:43:35.486Z,4860.00
2023-04-22T03:44:35.546Z,5114.00
2023-04-22T03:45:35.664Z,5332.00
2023-04-22T03:46:35.656Z,5511.00
2023-04-22T03:47:35.721Z,5705.00
2023-04-22T03:48:35.787Z,6008.00
2023-04-22T03:49:35.803Z,5651.00
2023-04-22T03:50:35.853Z,5137.00
2023-04-22T03:51:35.910Z,4879.00
2023-04-22T03:52:35.949Z,4386.00
2023-04-22T03:53:35.954Z,4094.00
2023-04-22T03:54:35.959Z,3931.00
2023-04-22T03:55:36.002Z,3709.00
2023-04-22T03:56:36.048Z,3594.00
2023-04-22T03:57:36.109Z,3572.00
2023-04-22T03:58:36.193Z,3328.00
2023-04-22T03:59:36.278Z,3214.00
2023-04-22T04:00:36.376Z,3177.00
2023-04-22T04:01:36.431Z,3008.00
2023-04-22T04:02:36.687Z,3086.00
2023-04-22T04:03:36.795Z,3113.00
2023-04-22T04:04:37.160Z,3205.00
2023-04-22T04:05:36.868Z,3207.00
2023-04-22T04:06:36.836Z,3131.00
2023-04-22T04:07:36.869Z,3347.00
2023-04-22T04:08:36.955Z,3469.00
2023-04-22T04:09:37.030Z,3818.00
2023-04-22T04:10:37.128Z,4231.00
2023-04-22T04:11:37.205Z,4430.00
2023-04-22T04:12:37.248Z,4235.00
2023-04-22T04:13:37.362Z,3940.00
2023-04-22T04:14:37.565Z,4345.00
2023-04-22T04:15:37.886Z,4480.00
2023-04-22T04:16:38.039Z,4361.00
2023-04-22T04:17:38.286Z,3968.00
2023-04-22T04:18:38.487Z,3735.00
2023-04-22T04:19:39.087Z,3646.00
2023-04-22T04:20:38.835Z,3493.00
2023-04-22T04:21:38.910Z,3659.00
2023-04-22T04:22:38.970Z,3965.00
2023-04-22T04:23:39.011Z,4128.00
2023-04-22T04:24:39.168Z,4151.00
2023-04-22T04:25:39.176Z,4075.00
2023-04-22T04:26:39.238Z,4042.00
2023-04-22T04:27:39.304Z,4083.00
2023-04-22T04:28:39.355Z,4036.00
2023-04-22T04:29:39.688Z,3970.00
2023-04-22T04:30:39.426Z,4080.00
2023-04-22T04:31:39.445Z,4347.00
2023-04-22T04:32:39.462Z,4377.00
2023-04-22T04:33:39.495Z,4502.00
2023-04-22T04:34:39.578Z,4735.00
2023-04-22T04:35:39.679Z,4847.00
2023-04-22T04:36:39.817Z,4968.00
2023-04-22T04:37:39.904Z,5029.00
2023-04-22T04:38:40.035Z,5014.00
2023-04-22T04:39:40.442Z,4997.00
2023-04-22T04:40:40.258Z,5072.00
2023-04-22T04:41:40.387Z,5247.00
2023-04-22T04:42:40.509Z,5424.00
2023-04-22T04:43:40.577Z,5653.00
2023-04-22T04:44:40.656Z,5678.00
2023-04-22T04:45:40.689Z,5513.00
2023-04-22T04:46:40.877Z,5433.00
2023-04-22T04:47:40.901Z,5401.00
2023-04-22T04:48:40.977Z,5331.00
2023-04-22T04:49:41.274Z,5376.00
2023-04-22T04:50:41.183Z,5464.00
2023-04-22T04:51:41.293Z,5365.00
2023-04-22T04:52:41.381Z,5428.00
2023-04-22T04:53:41.462Z,5429.00
2023-04-22T04:54:41.529Z,5513.00
2023-04-22T04:55:41.627Z,5527.00
2023-04-22T04:56:41.702Z,5484.00
2023-04-22T04:57:41.795Z,5286.00
2023-04-22T04:58:41.894Z,5035.00
2023-04-22T04:59:42.206Z,4907.00
2023-04-22T05:00:42.119Z,4868.00
2023-04-22T05:01:42.265Z,4766.00
2023-04-22T05:02:42.503Z,4719.00
2023-04-22T05:03:42.611Z,4652.00
2023-04-22T05:04:42.678Z,4536.00
2023-04-22T05:05:42.600Z,4678.00
2023-04-22T05:06:42.703Z,4411.00
2023-04-22T05:07:42.701Z,4091.00
2023-04-22T05:08:42.749Z,3981.00
2023-04-22T05:09:42.999Z,4486.00
2023-04-22T05:10:42.897Z,4949.00
2023-04-22T05:11:43.009Z,5132.00
2023-04-22T05:12:43.084Z,5281.00
2023-04-22T05:13:43.170Z,5367.00
2023-04-22T05:14:43.263Z,5196.00
2023-04-22T05:15:43.355Z,5347.00
2023-04-22T05:16:43.564Z,5509.00
2023-04-22T05:17:43.603Z,5226.00
2023-04-22T05:18:43.612Z,4342.00
2023-04-22T05:19:43.659Z,3942.00
2023-04-22T05:20:43.737Z,3810.00
2023-04-22T05:21:43.820Z,3590.00
2023-04-22T05:22:43.906Z,3378.00
2023-04-22T05:23:43.982Z,3732.00
2023-04-22T05:24:44.052Z,3614.00
2023-04-22T05:25:44.141Z,3515.00
2023-04-22T05:26:44.209Z,3355.00
2023-04-22T05:27:44.315Z,3235.00
2023-04-22T05:28:44.504Z,3052.00
2023-04-22T05:29:44.667Z,2882.00
2023-04-22T05:30:44.929Z,2919.00
2023-04-22T05:31:44.907Z,2952.00
2023-04-22T05:32:44.933Z,3148.00
2023-04-22T05:33:44.955Z,3907.00
2023-04-22T05:34:44.990Z,4532.00
2023-04-22T05:35:45.058Z,4876.00
2023-04-22T05:36:45.133Z,4925.00
2023-04-22T05:37:45.209Z,4949.00
2023-04-22T05:38:45.298Z,5005.00
2023-04-22T05:39:45.346Z,5198.00
2023-04-22T05:40:45.433Z,5307.00
2023-04-22T05:41:47.123Z,5375.00
2023-04-22T05:42:45.557Z,5481.00
2023-04-22T05:43:45.704Z,5569.00
2023-04-22T05:44:45.689Z,5578.00
2023-04-22T05:45:45.811Z,5684.00
2023-04-22T05:46:45.815Z,5715.00
2023-04-22T05:47:45.918Z,5724.00
2023-04-22T05:48:45.951Z,5675.00
2023-04-22T05:49:45.997Z,5620.00
2023-04-22T05:50:46.063Z,5550.00
2023-04-22T05:51:46.142Z,5547.00
2023-04-22T05:52:46.194Z,5565.00
2023-04-22T05:53:46.262Z,5524.00
2023-04-22T05:54:46.327Z,5457.00
2023-04-22T05:55:46.409Z,5410.00
2023-04-22T05:56:46.483Z,5418.00
2023-04-22T05:57:46.549Z,5534.00
2023-04-22T05:58:46.616Z,5514.00
2023-04-22T05:59:46.688Z,5520.00
2023-04-22T06:00:46.733Z,5587.00
2023-04-22T06:01:46.818Z,5573.00
2023-04-22T06:02:47.021Z,5499.00
2023-04-22T06:03:47.088Z,5486.00
2023-04-22T06:04:47.294Z,5443.00
2023-04-22T06:05:47.111Z,5400.00
2023-04-22T06:06:47.120Z,5235.00
2023-04-22T06:07:47.176Z,5037.00
2023-04-22T06:08:47.316Z,4921.00
2023-04-22T06:09:47.410Z,4850.00
2023-04-22T06:10:47.531Z,4744.00
2023-04-22T06:11:47.633Z,4605.00
2023-04-22T06:12:47.765Z,4521.00
2023-04-22T06:13:47.873Z,4442.00
2023-04-22T06:14:47.968Z,4320.00
2023-04-22T06:15:48.123Z,4053.00
2023-04-22T06:16:48.156Z,3869.00
2023-04-22T06:17:48.268Z,3698.00
2023-04-22T06:18:48.289Z,3655.00
2023-04-22T06:19:48.339Z,3543.00
2023-04-22T06:20:48.418Z,3363.00
2023-04-22T06:21:48.508Z,3226.00
2023-04-22T06:22:48.590Z,3093.00
2023-04-22T06:23:48.658Z,3050.00
2023-04-22T06:24:48.746Z,3066.00
2023-04-22T06:25:48.838Z,2890.00
2023-04-22T06:26:48.910Z,2599.00
2023-04-22T06:27:49.006Z,2406.00
2023-04-22T06:28:49.085Z,2299.00
2023-04-22T06:29:49.160Z,2270.00
2023-04-22T06:30:49.243Z,2135.00
2023-04-22T06:31:49.429Z,2094.00
2023-04-22T06:32:49.393Z,1981.00
2023-04-22T06:33:49.531Z,1980.00
2023-04-22T06:34:49.693Z,1935.00
2023-04-22T06:35:49.881Z,1925.00
2023-04-22T06:36:50.042Z,2104.00
2023-04-22T06:37:50.202Z,2090.00
2023-04-22T06:38:50.185Z,1996.00
2023-04-22T06:39:50.176Z,1920.00
2023-04-22T06:40:50.181Z,1859.00
2023-04-22T06:41:50.186Z,1809.00
2023-04-22T06:42:50.180Z,1657.00
2023-04-22T06:43:50.190Z,1629.00
2023-04-22T06:44:50.196Z,1531.00
2023-04-22T06:45:50.211Z,1555.00
2023-04-22T06:46:50.296Z,1519.00
2023-04-22T06:47:50.275Z,1615.00
2023-04-22T06:48:50.263Z,1615.00
2023-04-22T06:49:50.267Z,1606.00
2023-04-22T06:50:50.277Z,1518.00
2023-04-22T06:51:50.271Z,1534.00
2023-04-22T06:52:50.283Z,1536.00
2023-04-22T06:53:50.281Z,1470.00
2023-04-22T06:54:50.289Z,1418.00
2023-04-22T06:55:50.324Z,1461.00
2023-04-22T06:56:50.284Z,1358.00
2023-04-22T06:57:50.283Z,1192.00
2023-04-22T06:58:50.281Z,1133.00
2023-04-22T06:59:50.286Z,1073.00
2023-04-22T07:00:50.288Z,1052.00
2023-04-22T07:01:50.350Z,1119.00
2023-04-22T07:02:50.435Z,1214.00
2023-04-22T07:03:50.315Z,1262.00
2023-04-22T07:04:50.265Z,1198.00
2023-04-22T07:05:50.265Z,1190.00
2023-04-22T07:06:50.256Z,1317.00
2023-04-22T07:07:50.248Z,1371.00
2023-04-22T07:08:50.223Z,1417.00
2023-04-22T07:09:50.198Z,1491.00
2023-04-22T07:10:50.177Z,1400.00
2023-04-22T07:11:50.146Z,1407.00
2023-04-22T07:12:50.122Z,1389.00
2023-04-22T07:13:50.098Z,1337.00
2023-04-22T07:14:50.066Z,1196.00
2023-04-22T07:15:50.022Z,1353.00
2023-04-22T07:16:50.038Z,1617.00
2023-04-22T07:17:49.971Z,1707.00
2023-04-22T07:18:49.936Z,1753.00
2023-04-22T07:19:49.902Z,1637.00
2023-04-22T07:20:49.883Z,1542.00
2023-04-22T07:21:49.842Z,1446.00
2023-04-22T07:22:49.808Z,1571.00
2023-04-22T07:23:49.793Z,1763.00
2023-04-22T07:24:49.761Z,1674.00
2023-04-22T07:25:49.733Z,1442.00
2023-04-22T07:26:49.703Z,1280.00
2023-04-22T07:27:49.666Z,1304.00
2023-04-22T07:28:49.652Z,1188.00
2023-04-22T07:29:49.641Z,982.00
2023-04-22T07:30:49.612Z,910.00
2023-04-22T07:31:49.590Z,1253.00
2023-04-22T07:32:49.561Z,1663.00
2023-04-22T07:33:49.511Z,1769.00
2023-04-22T07:34:49.467Z,1507.00
2023-04-22T07:35:49.443Z,1260.00
2023-04-22T07:36:49.391Z,1212.00
2023-04-22T07:37:49.353Z,1188.00
2023-04-22T07:38:49.339Z,1317.00
2023-04-22T07:39:49.319Z,1706.00
2023-04-22T07:40:49.289Z,1305.00
2023-04-22T07:41:49.276Z,1072.00
2023-04-22T07:42:49.228Z,1099.00
2023-04-22T07:43:49.196Z,989.00
2023-04-22T07:44:49.272Z,889.00
2023-04-22T07:45:49.447Z,893.00
2023-04-22T07:46:49.717Z,911.00
2023-04-22T07:47:49.923Z,905.00
2023-04-22T07:48:50.153Z,874.00
2023-04-22T07:49:50.435Z,839.00
2023-04-22T07:50:50.519Z,714.00
2023-04-22T07:51:50.757Z,852.00
2023-04-22T07:52:50.975Z,856.00
2023-04-22T07:53:51.162Z,937.00
2023-04-22T07:54:51.249Z,1336.00
2023-04-22T07:55:51.458Z,1773.00
2023-04-22T07:56:51.617Z,1422.00
2023-04-22T07:57:51.771Z,1223.00
2023-04-22T07:58:51.912Z,1816.00
2023-04-22T07:59:52.166Z,2074.00
2023-04-22T08:00:52.383Z,2133.00
2023-04-22T08:01:52.484Z,2668.00
2023-04-22T08:02:52.828Z,2815.00
2023-04-22T08:03:53.098Z,2320.00
2023-04-22T08:04:53.221Z,1731.00
2023-04-22T08:05:53.293Z,1404.00
2023-04-22T08:06:53.436Z,1059.00
2023-04-22T08:07:53.558Z,996.00
2023-04-22T08:08:53.728Z,1013.00
2023-04-22T08:09:53.999Z,847.00
2023-04-22T08:10:54.087Z,650.00
2023-04-22T08:11:54.237Z,545.00
2023-04-22T08:12:54.446Z,518.00
2023-04-22T08:13:54.657Z,599.00
2023-04-22T08:14:54.884Z,731.00
2023-04-22T08:15:55.009Z,1036.00
2023-04-22T08:16:55.185Z,1537.00
2023-04-22T08:17:55.484Z,1316.00
2023-04-22T08:18:55.508Z,1057.00
2023-04-22T08:19:55.726Z,860.00
2023-04-22T08:20:55.910Z,824.00
2023-04-22T08:21:56.100Z,1231.00
2023-04-22T08:22:56.280Z,1303.00
2023-04-22T08:23:56.456Z,1300.00
2023-04-22T08:24:56.612Z,1193.00
2023-04-22T08:25:56.792Z,920.00
2023-04-22T08:26:56.986Z,617.00
2023-04-22T08:27:57.160Z,584.00
2023-04-22T08:28:57.340Z,575.00
2023-04-22T08:29:57.517Z,578.00
2023-04-22T08:30:57.761Z,541.00
2023-04-22T08:31:57.814Z,480.00
2023-04-22T08:32:58.136Z,463.00
2023-04-22T08:33:58.318Z,481.00
2023-04-22T08:35:04.353Z,522.00
2023-04-22T08:35:59.474Z,523.00
2023-04-22T08:36:58.416Z,506.00
2023-04-22T08:37:58.342Z,532.00
2023-04-22T08:38:58.287Z,527.00
2023-04-22T08:39:58.219Z,550.00
2023-04-22T08:40:58.149Z,560.00
2023-04-22T08:41:58.147Z,586.00
2023-04-22T08:42:58.021Z,629.00
2023-04-22T08:43:57.943Z,591.00
2023-04-22T08:44:57.855Z,534.00
2023-04-22T08:45:57.779Z,500.00
2023-04-22T08:46:57.782Z,516.00
2023-04-22T08:47:57.632Z,572.00
2023-04-22T08:48:57.504Z,564.00
2023-04-22T08:49:57.419Z,586.00
2023-04-22T08:50:57.473Z,627.00
2023-04-22T08:51:57.281Z,615.00
2023-04-22T08:52:57.258Z,648.00
2023-04-22T08:53:57.227Z,637.00
2023-04-22T08:54:57.157Z,600.00
2023-04-22T08:55:57.090Z,642.00
2023-04-22T08:56:57.027Z,746.00
2023-04-22T08:57:57.009Z,793.00
2023-04-22T08:58:56.951Z,975.00
2023-04-22T08:59:56.926Z,1130.00
2023-04-22T09:00:56.898Z,1049.00
2023-04-22T09:01:56.977Z,1078.00
2023-04-22T09:02:56.965Z,747.00
2023-04-22T09:03:56.865Z,617.00
2023-04-22T09:04:56.719Z,631.00
2023-04-22T09:05:56.645Z,589.00
2023-04-22T09:06:56.626Z,572.00
2023-04-22T09:07:56.579Z,571.00
2023-04-22T09:08:56.514Z,595.00
2023-04-22T09:09:56.450Z,613.00
2023-04-22T09:10:56.440Z,633.00
2023-04-22T09:11:56.407Z,598.00
2023-04-22T09:12:56.409Z,574.00
2023-04-22T09:13:56.351Z,548.00
2023-04-22T09:14:56.357Z,588.00
2023-04-22T09:15:58.626Z,640.00
2023-04-22T09:16:56.196Z,621.00
2023-04-22T09:17:56.084Z,637.00
2023-04-22T09:18:55.987Z,576.00
2023-04-22T09:19:55.885Z,546.00
2023-04-22T09:20:55.794Z,551.00
2023-04-22T09:21:55.701Z,502.00
2023-04-22T09:22:55.605Z,505.00
2023-04-22T09:23:55.522Z,436.00
2023-04-22T09:24:55.444Z,432.00
2023-04-22T09:25:55.342Z,516.00
2023-04-22T09:26:55.254Z,564.00
2023-04-22T09:27:55.135Z,630.00
2023-04-22T09:28:55.045Z,781.00
2023-04-22T09:29:55.084Z,773.00
2023-04-22T09:30:54.824Z,627.00
2023-04-22T09:31:54.801Z,688.00
2023-04-22T09:32:54.689Z,770.00
2023-04-22T09:33:54.491Z,684.00
2023-04-22T09:34:54.386Z,547.00
2023-04-22T09:35:54.267Z,483.00
2023-04-22T09:36:54.162Z,510.00
2023-04-22T09:37:54.074Z,472.00
2023-04-22T09:38:53.956Z,548.00
2023-04-22T09:39:53.830Z,549.00
2023-04-22T09:40:53.712Z,446.00
2023-04-22T09:41:53.597Z,435.00
2023-04-22T09:42:53.479Z,418.00
2023-04-22T09:43:53.354Z,444.00
2023-04-22T09:44:53.240Z,517.00
2023-04-22T09:45:53.146Z,576.00
2023-04-22T09:46:53.025Z,567.00
2023-04-22T09:47:52.955Z,524.00
2023-04-22T09:48:52.800Z,518.00
2023-04-22T09:49:52.681Z,509.00
2023-04-22T09:50:52.588Z,695.00
2023-04-22T09:51:52.463Z,925.00
2023-04-22T09:52:52.343Z,1023.00
2023-04-22T09:53:52.255Z,742.00
2023-04-22T09:54:52.194Z,658.00
2023-04-22T09:55:52.130Z,646.00
2023-04-22T09:56:52.092Z,654.00
2023-04-22T09:57:51.998Z,569.00
2023-04-22T09:58:51.929Z,507.00
2023-04-22T09:59:51.870Z,515.00
2023-04-22T10:00:51.818Z,621.00
2023-04-22T10:01:51.717Z,1007.00
2023-04-22T10:02:51.687Z,784.00
2023-04-22T10:03:51.582Z,654.00
2023-04-22T10:04:51.549Z,570.00
2023-04-22T10:05:51.465Z,604.00
2023-04-22T10:06:51.403Z,807.00
2023-04-22T10:07:51.375Z,882.00
2023-04-22T10:08:51.236Z,618.00
2023-04-22T10:09:51.152Z,497.00
2023-04-22T10:10:51.046Z,502.00
2023-04-22T10:11:50.942Z,571.00
2023-04-22T10:12:50.840Z,583.00
2023-04-22T10:13:50.884Z,638.00
2023-04-22T10:14:50.954Z,636.00
2023-04-22T10:15:51.101Z,760.00
2023-04-22T10:16:51.234Z,978.00
2023-04-22T10:17:51.443Z,1099.00
2023-04-22T10:18:51.606Z,881.00
2023-04-22T10:19:51.759Z,877.00
2023-04-22T10:20:51.869Z,1012.00
2023-04-22T10:21:52.091Z,1078.00
2023-04-22T10:22:52.209Z,767.00
2023-04-22T10:23:52.324Z,643.00
2023-04-22T10:24:52.551Z,728.00
2023-04-22T10:25:52.665Z,705.00
2023-04-22T10:26:54.300Z,628.00
2023-04-22T10:27:52.931Z,604.00
2023-04-22T10:28:52.843Z,519.00
2023-04-22T10:29:52.649Z,577.00
2023-04-22T10:30:52.618Z,594.00
2023-04-22T10:31:52.679Z,631.00
2023-04-22T10:32:52.823Z,491.00
2023-04-22T10:33:53.745Z,469.00
2023-04-22T10:34:52.801Z,525.00
2023-04-22T10:35:52.671Z,631.00
2023-04-22T10:36:52.531Z,754.00
2023-04-22T10:37:52.585Z,1060.00
2023-04-22T10:38:52.699Z,1092.00
2023-04-22T10:39:52.823Z,1120.00
2023-04-22T10:40:53.176Z,1273.00
2023-04-22T10:41:53.075Z,1549.00
2023-04-22T10:42:53.186Z,1692.00
2023-04-22T10:43:53.266Z,1682.00
2023-04-22T10:44:53.465Z,1789.00
2023-04-22T10:45:53.576Z,1913.00
2023-04-22T10:46:53.708Z,2037.00
2023-04-22T10:47:53.819Z,1702.00
2023-04-22T10:48:53.869Z,1621.00
2023-04-22T10:49:54.064Z,1814.00
2023-04-22T10:50:54.144Z,1833.00
2023-04-22T10:51:54.217Z,1928.00
2023-04-22T10:52:54.326Z,1529.00
2023-04-22T10:53:54.450Z,1349.00
2023-04-22T10:54:54.569Z,1360.00
2023-04-22T10:55:54.676Z,1498.00
2023-04-22T10:56:58.146Z,1422.00
2023-04-22T10:57:54.618Z,1348.00
2023-04-22T10:58:54.470Z,732.00
2023-04-22T10:59:54.326Z,500.00
2023-04-22T11:00:54.529Z,433.00
2023-04-22T11:01:54.097Z,400.00
2023-04-22T11:02:53.992Z,503.00
2023-04-22T11:03:53.832Z,608.00
2023-04-22T11:04:53.607Z,580.00
2023-04-22T11:05:53.449Z,588.00
2023-04-22T11:06:53.311Z,667.00
2023-04-22T11:07:53.152Z,1062.00
2023-04-22T11:08:53.016Z,1172.00
2023-04-22T11:09:52.868Z,822.00
2023-04-22T11:10:52.726Z,622.00
2023-04-22T11:11:52.561Z,711.00
2023-04-22T11:12:52.641Z,1027.00
2023-04-22T11:13:52.702Z,1103.00
2023-04-22T11:14:52.858Z,1009.00
2023-04-22T11:15:53.021Z,1230.00
2023-04-22T11:16:53.187Z,816.00
2023-04-22T11:17:53.325Z,632.00
2023-04-22T11:18:53.468Z,563.00
2023-04-22T11:19:53.586Z,467.00
2023-04-22T11:20:53.770Z,411.00
2023-04-22T11:21:53.878Z,476.00
2023-04-22T11:22:53.971Z,512.00
2023-04-22T11:23:54.117Z,519.00
2023-04-22T11:24:54.237Z,601.00
2023-04-22T11:25:54.351Z,886.00
2023-04-22T11:26:54.533Z,797.00
2023-04-22T11:27:54.610Z,660.00
2023-04-22T11:28:54.711Z,623.00
2023-04-22T11:29:54.879Z,604.00
2023-04-22T11:30:55.008Z,583.00
2023-04-22T11:31:55.220Z,471.00
2023-04-22T11:32:55.317Z,510.00
2023-04-22T11:33:55.393Z,500.00
2023-04-22T11:34:55.482Z,500.00
2023-04-22T11:35:55.627Z,565.00
2023-04-22T11:36:55.667Z,599.00
2023-04-22T11:37:55.883Z,739.00
2023-04-22T11:38:56.003Z,712.00
2023-04-22T11:40:20.886Z,823.00
2023-04-22T11:40:56.876Z,825.00
2023-04-22T11:41:55.720Z,672.00
2023-04-22T11:42:55.564Z,520.00
2023-04-22T11:43:55.529Z,570.00
2023-04-22T11:44:55.326Z,775.00
2023-04-22T11:45:55.249Z,874.00
2023-04-22T11:46:55.022Z,1005.00
2023-04-22T11:47:54.898Z,842.00
2023-04-22T11:48:54.637Z,696.00
2023-04-22T11:49:54.471Z,781.00
2023-04-22T11:50:54.284Z,900.00
2023-04-22T11:51:54.152Z,864.00
2023-04-22T11:52:53.941Z,584.00
2023-04-22T11:53:53.782Z,496.00
2023-04-22T11:54:53.593Z,400.00
2023-04-22T11:55:53.423Z,400.00
2023-04-22T11:56:53.250Z,465.00
2023-04-22T11:57:53.072Z,481.00
2023-04-22T11:58:52.896Z,529.00
2023-04-22T11:59:52.721Z,585.00
2023-04-22T12:00:52.564Z,529.00
2023-04-22T12:01:52.416Z,572.00
2023-04-22T12:02:52.278Z,585.00
2023-04-22T12:03:52.089Z,588.00
2023-04-22T12:04:51.857Z,568.00
2023-04-22T12:05:51.659Z,584.00
2023-04-22T12:06:51.465Z,656.00
2023-04-22T12:07:51.314Z,784.00
2023-04-22T12:08:51.166Z,996.00
2023-04-22T12:09:51.022Z,1228.00
2023-04-22T12:10:50.867Z,1295.00
2023-04-22T12:11:50.714Z,1570.00
2023-04-22T12:12:50.557Z,1723.00
2023-04-22T12:13:50.405Z,1886.00